Terminal Aerodrome Forecast
Issued by NWS

Home | Current Version | Previous Version | Text Only | Print | Product List | Glossary On
Versions: 1 2 3 4 5 6 7 8 9 10 11 12 13 14 15 16 17
000
FTUS44 KHGX 181728
TAFSGR
TAF
KSGR 181728Z 1818/1918 12005KT P6SM FEW030 FEW250
      TEMPO 1819/1823 6SM FU
     FM190900 09003KT 6SM MIFG FEW035
     FM191200 06001KT P6SM SCT035
     FM191600 09008KT P6SM SCT040 SCT120=

USA.gov is the U.S. government's official web portal to all federal, state and local government web resources and services.